Archival Weather

Republic

Farmingdale, New York (KFRG)

Report from: Thursday, January 25, 2024 10:38 PM EST
Current time: Monday, June 17, 2024 2:19 AM EDT

Current weather – Weather history – Daily summaries
Weather forecast

Temperature8.3°C (46.9°F)
Wind chill5.6°C (42.1°F)
Dew point6.7°C (44.1°F)
Winds 9 kts (4.6 m/s, 10.4 mph) East (90°)
Visibility10 mi. (16.1 km)
Clouds Scattered clouds 700 ft. (213 m)
Ceiling: Overcast 1,100 ft. (335 m)
Altimeter30.22 in.Hg (1023 mB)
Relative humidity90 %
Density altitude-1,005 ft. (-306 m)
Remarks Automated weather observing station with precipitation discriminator
Flight conditions Marginal Visual Meteorological Conditions
Raw dataKFRG 260338Z 09009KT 10SM SCT007 OVC011 08/07 A3022 RMK AO2 T00830067
An error has occurred. This application may no longer respond until reloaded. Reload 🗙